This is the latest recevied weather packets stored in our database for station/object DO1BDB-12. If no packets are shown the sender has not sent any weather packets the latest 10 day(s).
| Time | Temp. | Humidity | Pressure | Rain* | Wind** | Luminosity | Snow |
|---|---|---|---|---|---|---|---|
| 1787759816 | 23.33° C | 50% | 102.1 hPa | - | - | - | - |
| 1787759750 | 23.33° C | 50% | 102.1 hPa | - | - | - | - |
| 1787759684 | 22.78° C | 50% | 102.1 hPa | - | - | - | - |
| 1787759618 | 23.33° C | 50% | 102.1 hPa | - | - | - | - |
| 1787759553 | 23.33° C | 49% | 102.1 hPa | - | - | - | - |
| 1787759486 | 23.33° C | 49% | 102.1 hPa | - | - | - | - |
| 1787759421 | 23.33° C | 49% | 102.1 hPa | - | - | - | - |
| 1787759355 | 23.33° C | 48% | 102.1 hPa | - | - | - | - |
| 1787759289 | 23.89° C | 48% | 102.1 hPa | - | - | - | - |
| 1787759223 | 23.33° C | 51% | 102.1 hPa | - | - | - | - |
| 1787759157 | 23.89° C | 50% | 102.1 hPa | - | - | - | - |
| 1787759091 | 23.33° C | 50% | 102.1 hPa | - | - | - | - |
| 1787759026 | 23.33° C | 50% | 102.1 hPa | - | - | - | - |
| 1787758960 | 23.89° C | 49% | 102.1 hPa | - | - | - | - |
| 1787758894 | 23.33° C | 49% | 102.1 hPa | - | - | - | - |
| 1787758828 | 23.89° C | 49% | 102.1 hPa | - | - | - | - |
| 1787758762 | 23.33° C | 50% | 102.1 hPa | - | - | - | - |
| 1787758696 | 23.33° C | 48% | 102.1 hPa | - | - | - | - |
| 1787758631 | 24.44° C | 47% | 102.1 hPa | - | - | - | - |
| 1787758565 | 24.44° C | 47% | 102.1 hPa | - | - | - | - |
| 1787758499 | 23.89° C | 49% | 102.1 hPa | - | - | - | - |
| 1787758433 | 23.89° C | 49% | 102.1 hPa | - | - | - | - |
| 1787758367 | 24.44° C | 47% | 102.1 hPa | - | - | - | - |
| 1787758301 | 24.44° C | 47% | 102.1 hPa | - | - | - | - |
| 1787758236 | 25° C | 46% | 102.1 hPa | - | - | - | - |
* Rain since midnight (hover to see other rain measurements)
** Current wind speed in m/s (hover to see current wind gust speed)